createdAt,value
2023-11-15T00:02:02.095Z,96.99
2023-11-15T00:04:34.109Z,97.86
2023-11-15T00:07:07.746Z,98.79
2023-11-15T00:09:39.732Z,98.90
2023-11-15T00:12:12.571Z,99.32
2023-11-15T00:14:46.245Z,99.44
2023-11-15T00:17:18.856Z,99.91
2023-11-15T00:19:50.930Z,100.00
2023-11-15T00:22:26.793Z,99.85
2023-11-15T00:24:59.055Z,98.75
2023-11-15T00:27:31.074Z,98.69
2023-11-15T00:30:04.344Z,97.70
2023-11-15T00:32:36.482Z,96.36
2023-11-15T00:35:09.938Z,94.72
2023-11-15T00:38:05.898Z,94.17
2023-11-15T00:40:38.476Z,93.21
2023-11-15T00:43:11.072Z,93.52
2023-11-15T00:45:43.083Z,94.81
2023-11-15T00:48:15.641Z,95.92
2023-11-15T00:50:47.808Z,96.88
2023-11-15T00:53:20.152Z,98.10
2023-11-15T00:55:52.816Z,99.25
2023-11-15T00:58:29.644Z,98.44
2023-11-15T01:01:01.895Z,97.50
2023-11-15T01:03:34.403Z,97.74
2023-11-15T01:06:08.375Z,97.51
2023-11-15T01:08:40.746Z,97.90
2023-11-15T01:11:13.482Z,98.46
2023-11-15T01:13:45.627Z,99.00
2023-11-15T01:16:18.465Z,99.19
2023-11-15T01:18:51.092Z,99.35
2023-11-15T01:21:25.606Z,98.78
2023-11-15T01:23:57.714Z,99.33
2023-11-15T01:26:30.126Z,99.58
2023-11-15T01:29:03.016Z,99.63
2023-11-15T01:31:35.272Z,99.20
2023-11-15T01:34:07.802Z,97.85
2023-11-15T01:36:39.840Z,98.25
2023-11-15T01:39:17.670Z,98.02
2023-11-15T01:41:50.838Z,98.32
2023-11-15T01:44:24.170Z,99.43
2023-11-15T01:46:56.370Z,98.91
2023-11-15T01:49:29.191Z,98.98
2023-11-15T01:52:02.354Z,99.14
2023-11-15T01:54:34.438Z,99.37
2023-11-15T01:57:06.909Z,99.65
2023-11-15T01:59:39.228Z,99.74
2023-11-15T02:02:11.911Z,100.00
2023-11-15T02:04:44.323Z,100.00
2023-11-15T02:07:16.342Z,100.00
2023-11-15T02:09:48.817Z,100.00
2023-11-15T02:12:22.059Z,100.00
2023-11-15T02:14:55.362Z,99.84
2023-11-15T02:17:27.547Z,97.70
2023-11-15T02:19:59.986Z,96.48
2023-11-15T02:22:33.696Z,97.04
2023-11-15T02:25:07.039Z,98.85
2023-11-15T02:27:39.453Z,98.93
2023-11-15T02:30:13.239Z,98.73
2023-11-15T02:32:46.366Z,99.56
2023-11-15T02:35:18.542Z,99.78
2023-11-15T02:37:51.535Z,100.00
2023-11-15T02:40:23.517Z,100.00
2023-11-15T02:42:58.628Z,100.00
2023-11-15T02:45:30.635Z,100.00
2023-11-15T02:48:03.209Z,100.00
2023-11-15T02:50:35.504Z,100.00
2023-11-15T02:53:07.481Z,100.00
2023-11-15T02:55:39.591Z,100.00
2023-11-15T02:58:13.153Z,100.00
2023-11-15T03:00:46.118Z,100.00
2023-11-15T03:03:18.370Z,100.00
2023-11-15T03:05:50.847Z,100.00
2023-11-15T03:08:24.955Z,100.00
2023-11-15T03:10:57.047Z,100.00
2023-11-15T03:13:29.294Z,100.00
2023-11-15T03:16:02.489Z,100.00
2023-11-15T03:18:34.669Z,100.00
2023-11-15T03:21:08.889Z,100.00
2023-11-15T03:23:40.950Z,100.00
2023-11-15T03:26:12.974Z,100.00
2023-11-15T03:28:45.286Z,100.00
2023-11-15T03:31:17.585Z,100.00
2023-11-15T03:33:52.166Z,100.00
2023-11-15T03:36:24.958Z,100.00
2023-11-15T03:38:57.039Z,100.00
2023-11-15T03:41:29.096Z,100.00
2023-11-15T03:44:01.198Z,100.00
2023-11-15T03:46:33.259Z,100.00
2023-11-15T03:49:05.347Z,100.00
2023-11-15T03:51:37.364Z,100.00
2023-11-15T03:54:10.439Z,100.00
2023-11-15T03:56:42.423Z,100.00
2023-11-15T03:59:14.738Z,100.00
2023-11-15T04:01:55.121Z,100.00
2023-11-15T04:04:31.094Z,100.00
2023-11-15T04:07:04.779Z,100.00
2023-11-15T04:09:37.508Z,100.00
2023-11-15T04:12:10.509Z,100.00
2023-11-15T04:14:42.587Z,100.00
2023-11-15T04:17:15.285Z,100.00
2023-11-15T04:19:47.654Z,100.00
2023-11-15T04:22:19.768Z,100.00
2023-11-15T04:24:53.861Z,100.00
2023-11-15T04:27:26.659Z,100.00
2023-11-15T04:29:59.280Z,100.00
2023-11-15T04:32:31.386Z,100.00
2023-11-15T04:35:04.321Z,100.00
2023-11-15T04:37:36.919Z,100.00
2023-11-15T04:40:12.053Z,100.00
2023-11-15T04:42:46.538Z,100.00
2023-11-15T04:45:18.882Z,100.00
2023-11-15T04:47:51.298Z,100.00
2023-11-15T04:50:24.405Z,100.00
2023-11-15T04:52:58.806Z,100.00
2023-11-15T04:55:30.934Z,100.00
2023-11-15T04:58:02.987Z,100.00
2023-11-15T05:00:35.193Z,99.69
2023-11-15T05:03:07.504Z,98.73
2023-11-15T05:05:44.207Z,97.84
2023-11-15T05:08:16.386Z,98.30
2023-11-15T05:10:48.844Z,97.90
2023-11-15T05:13:21.080Z,98.22
2023-11-15T05:15:53.465Z,96.92
2023-11-15T05:18:25.848Z,97.56
2023-11-15T05:20:58.257Z,98.04
2023-11-15T05:23:30.347Z,98.61
2023-11-15T05:26:02.433Z,98.94
2023-11-15T05:28:34.604Z,99.44
2023-11-15T05:31:07.660Z,99.90
2023-11-15T05:33:39.912Z,98.71
2023-11-15T05:36:13.599Z,97.77
2023-11-15T05:38:45.621Z,95.34
2023-11-15T05:41:17.777Z,96.05
2023-11-15T05:43:49.841Z,96.81
2023-11-15T05:46:22.470Z,96.09
2023-11-15T05:48:55.618Z,95.43
2023-11-15T05:51:27.972Z,94.74
2023-11-15T05:54:05.462Z,94.64
2023-11-15T05:56:38.127Z,94.82
2023-11-15T05:59:11.161Z,94.65
2023-11-15T06:01:43.446Z,94.96
2023-11-15T06:04:15.643Z,94.99
2023-11-15T06:06:48.042Z,94.38
2023-11-15T06:09:20.208Z,94.46
2023-11-15T06:11:55.657Z,95.17
2023-11-15T06:14:27.875Z,95.48
2023-11-15T06:17:00.241Z,95.36
2023-11-15T06:19:32.966Z,94.28
2023-11-15T06:22:05.405Z,93.57
2023-11-15T06:24:37.652Z,94.53
2023-11-15T06:27:09.769Z,95.33
2023-11-15T06:29:42.011Z,94.63
2023-11-15T06:32:14.212Z,94.44
2023-11-15T06:34:46.494Z,94.03
2023-11-15T06:37:19.254Z,93.48
2023-11-15T06:39:51.481Z,92.63
2023-11-15T06:42:23.564Z,90.78
2023-11-15T06:44:55.600Z,90.27
2023-11-15T06:47:30.494Z,90.09
2023-11-15T06:50:02.653Z,89.70
2023-11-15T06:52:35.186Z,89.92
2023-11-15T06:55:10.973Z,88.88
2023-11-15T06:57:45.014Z,88.48
2023-11-15T07:00:18.553Z,89.33
2023-11-15T07:02:50.862Z,88.63
2023-11-15T07:05:23.475Z,87.67
2023-11-15T07:07:56.173Z,87.51
2023-11-15T07:10:31.320Z,86.70
2023-11-15T07:13:03.920Z,86.02
2023-11-15T07:15:36.676Z,85.73
2023-11-15T07:18:08.887Z,86.11
2023-11-15T07:20:43.534Z,84.71
2023-11-15T07:23:16.390Z,83.98
2023-11-15T07:25:48.467Z,84.16
2023-11-15T07:28:20.986Z,84.09
2023-11-15T07:30:56.725Z,84.68
2023-11-15T07:33:29.043Z,84.80
2023-11-15T07:36:01.344Z,84.16
2023-11-15T07:38:36.072Z,84.71
2023-11-15T07:41:08.886Z,85.08
2023-11-15T07:43:42.510Z,85.11
2023-11-15T07:46:15.093Z,85.53
2023-11-15T07:48:50.067Z,86.32
2023-11-15T07:51:22.213Z,86.31
2023-11-15T07:53:54.251Z,86.55
2023-11-15T07:56:26.254Z,86.64
2023-11-15T07:58:58.302Z,86.48
2023-11-15T08:01:30.882Z,86.11
2023-11-15T08:04:04.002Z,85.48
2023-11-15T08:06:37.266Z,84.49
2023-11-15T08:09:12.632Z,83.57
2023-11-15T08:11:46.370Z,82.95
2023-11-15T08:14:18.917Z,82.76
2023-11-15T08:16:51.376Z,82.75
2023-11-15T08:19:23.859Z,83.00
2023-11-15T08:21:57.786Z,82.90
2023-11-15T08:24:29.805Z,84.16
2023-11-15T08:27:02.275Z,84.09
2023-11-15T08:29:34.265Z,83.56
2023-11-15T08:32:07.478Z,82.92
2023-11-15T08:34:39.529Z,82.15
2023-11-15T08:37:14.003Z,82.18
2023-11-15T08:39:46.140Z,82.56
2023-11-15T08:42:18.383Z,82.68
2023-11-15T08:44:50.478Z,82.72
2023-11-15T08:47:23.037Z,82.22
2023-11-15T08:49:55.438Z,81.68
2023-11-15T08:52:27.945Z,81.31
2023-11-15T08:55:00.407Z,81.48
2023-11-15T08:57:32.606Z,82.08
2023-11-15T09:00:04.940Z,82.43
2023-11-15T09:02:37.163Z,81.01
2023-11-15T09:05:10.153Z,80.46
2023-11-15T09:07:43.148Z,80.30
2023-11-15T09:10:15.582Z,80.05
2023-11-15T09:12:47.744Z,80.46
2023-11-15T09:15:21.559Z,80.93
2023-11-15T09:17:53.787Z,81.13
2023-11-15T09:20:28.730Z,81.35
2023-11-15T09:23:01.184Z,81.35
2023-11-15T09:25:36.719Z,81.95
2023-11-15T09:28:08.865Z,80.79
2023-11-15T09:30:41.307Z,80.56
2023-11-15T09:33:17.937Z,80.72
2023-11-15T09:35:55.233Z,81.34
2023-11-15T09:38:33.548Z,82.55
2023-11-15T09:41:11.400Z,82.05
2023-11-15T09:43:45.548Z,81.26
2023-11-15T09:46:17.784Z,81.16
2023-11-15T09:48:57.078Z,81.14
2023-11-15T09:51:35.598Z,81.90
2023-11-15T09:54:16.058Z,82.16
2023-11-15T09:56:51.002Z,82.64
2023-11-15T09:59:24.282Z,82.61
2023-11-15T10:01:58.674Z,83.31
2023-11-15T10:04:31.445Z,83.07
2023-11-15T10:07:06.437Z,82.45
2023-11-15T10:09:41.637Z,82.80
2023-11-15T10:12:14.367Z,83.20
2023-11-15T10:14:54.893Z,83.53
2023-11-15T10:17:42.096Z,83.67
2023-11-15T10:20:26.890Z,83.81
2023-11-15T10:22:59.389Z,84.44
2023-11-15T10:25:32.900Z,83.73
2023-11-15T10:28:08.863Z,83.91
2023-11-15T10:30:42.276Z,84.09
2023-11-15T10:33:15.695Z,84.51
2023-11-15T10:35:48.573Z,84.93
2023-11-15T10:38:24.675Z,86.71
2023-11-15T10:40:58.772Z,87.39
2023-11-15T10:43:31.772Z,88.18
2023-11-15T10:46:07.017Z,88.64
2023-11-15T10:48:41.752Z,88.30
2023-11-15T10:51:15.792Z,88.96
2023-11-15T10:53:48.958Z,89.17
2023-11-15T10:56:23.416Z,89.89
2023-11-15T10:58:56.245Z,90.60
2023-11-15T11:01:30.673Z,90.12
2023-11-15T11:04:08.822Z,89.72
2023-11-15T11:06:48.993Z,89.57
2023-11-15T11:09:27.029Z,89.04
2023-11-15T11:12:07.153Z,88.26
2023-11-15T11:14:39.788Z,88.39
2023-11-15T11:17:35.475Z,88.02
2023-11-15T11:20:27.914Z,88.82
2023-11-15T11:23:18.403Z,89.92
2023-11-15T11:25:53.350Z,90.15
2023-11-15T11:28:25.823Z,89.97
2023-11-15T11:31:19.256Z,90.48
2023-11-15T11:34:10.995Z,90.46
2023-11-15T11:36:51.994Z,90.98
2023-11-15T11:39:44.820Z,91.69
2023-11-15T11:42:28.025Z,93.19
2023-11-15T11:45:00.247Z,93.91
2023-11-15T11:47:32.693Z,95.31
2023-11-15T11:50:07.674Z,94.88
2023-11-15T11:52:40.839Z,95.13
2023-11-15T11:55:13.970Z,95.45
2023-11-15T11:57:46.214Z,94.93
2023-11-15T12:00:22.281Z,95.44
2023-11-15T12:03:01.124Z,95.82
2023-11-15T12:05:40.965Z,96.79
2023-11-15T12:08:15.714Z,96.86
2023-11-15T12:10:48.965Z,96.40
2023-11-15T12:13:21.306Z,96.43
2023-11-15T12:15:53.459Z,97.26
2023-11-15T12:18:25.879Z,97.09
2023-11-15T12:20:58.621Z,95.63
2023-11-15T12:23:30.918Z,96.54
2023-11-15T12:26:05.605Z,96.37
2023-11-15T12:28:36.525Z,96.64
2023-11-15T12:31:10.260Z,96.36
2023-11-15T12:33:42.781Z,96.15
2023-11-15T12:36:16.905Z,95.76
2023-11-15T12:38:58.860Z,95.81
2023-11-15T12:41:30.900Z,96.22
2023-11-15T12:44:13.308Z,96.66
2023-11-15T12:46:46.378Z,97.64
2023-11-15T12:49:23.750Z,97.83
2023-11-15T12:51:55.854Z,97.75
2023-11-15T12:54:28.197Z,97.73
2023-11-15T12:57:13.128Z,97.94
2023-11-15T12:59:49.355Z,97.60
2023-11-15T13:02:28.168Z,96.59
2023-11-15T13:05:04.726Z,96.40
2023-11-15T13:07:37.089Z,96.40
2023-11-15T13:10:11.819Z,96.40
2023-11-15T13:12:43.808Z,96.55
2023-11-15T13:15:19.245Z,96.18
2023-11-15T13:17:52.614Z,95.97
2023-11-15T13:20:24.755Z,96.50
2023-11-15T13:22:56.776Z,95.61
2023-11-15T13:25:28.737Z,94.93
2023-11-15T13:28:01.055Z,94.70
2023-11-15T13:30:33.283Z,94.93
2023-11-15T13:33:05.581Z,96.13
2023-11-15T13:35:37.849Z,96.65
2023-11-15T13:38:13.131Z,97.24
2023-11-15T13:40:46.146Z,97.33
2023-11-15T13:43:18.143Z,96.24
2023-11-15T13:45:50.283Z,96.25
2023-11-15T13:48:22.872Z,95.62
2023-11-15T13:50:55.096Z,95.20
2023-11-15T13:53:27.721Z,94.23
2023-11-15T13:55:59.748Z,93.87
2023-11-15T13:58:32.093Z,93.57
2023-11-15T14:01:04.535Z,93.43
2023-11-15T14:03:36.687Z,93.88
2023-11-15T14:06:11.997Z,93.83
2023-11-15T14:08:52.072Z,94.34
2023-11-15T14:11:30.975Z,94.87
2023-11-15T14:14:05.291Z,94.46
2023-11-15T14:16:39.118Z,94.15
2023-11-15T14:19:11.543Z,94.13
2023-11-15T14:21:45.778Z,94.00
2023-11-15T14:24:18.194Z,92.79
2023-11-15T14:26:50.375Z,92.15
2023-11-15T14:29:23.149Z,92.18
2023-11-15T14:31:55.517Z,92.93
2023-11-15T14:34:30.034Z,93.74
2023-11-15T14:37:02.081Z,93.59
2023-11-15T14:39:34.196Z,92.70
2023-11-15T14:42:08.619Z,93.01
2023-11-15T14:44:41.237Z,93.31
2023-11-15T14:47:13.286Z,91.82
2023-11-15T14:49:45.475Z,91.43
2023-11-15T14:52:22.656Z,90.62
2023-11-15T14:54:54.762Z,89.92
2023-11-15T14:57:26.779Z,89.49
2023-11-15T14:59:58.971Z,88.33
2023-11-15T15:02:31.074Z,87.87
2023-11-15T15:05:06.600Z,87.86
2023-11-15T15:07:38.914Z,86.85
2023-11-15T15:10:13.185Z,86.22
2023-11-15T15:12:45.366Z,86.40
2023-11-15T15:15:18.661Z,86.21
2023-11-15T15:17:51.567Z,86.06
2023-11-15T15:20:26.167Z,85.95
2023-11-15T15:22:58.191Z,86.06
2023-11-15T15:25:30.279Z,85.71
2023-11-15T15:28:02.371Z,85.93
2023-11-15T15:30:34.498Z,85.84
2023-11-15T15:33:08.647Z,85.74
2023-11-15T15:35:40.469Z,85.90
2023-11-15T15:38:12.714Z,86.04
2023-11-15T15:40:46.112Z,85.84
2023-11-15T15:43:18.307Z,85.94
2023-11-15T15:45:50.423Z,85.86
2023-11-15T15:48:24.579Z,85.78
2023-11-15T15:50:57.060Z,85.73
2023-11-15T15:53:29.180Z,85.64
2023-11-15T15:56:01.211Z,85.35
2023-11-15T15:58:33.263Z,85.01
2023-11-15T16:01:05.586Z,85.16
2023-11-15T16:03:37.998Z,85.37
2023-11-15T16:06:11.058Z,85.79
2023-11-15T16:08:43.104Z,85.84
2023-11-15T16:11:15.365Z,86.05
2023-11-15T16:13:47.335Z,86.02
2023-11-15T16:16:19.404Z,86.69
2023-11-15T16:18:52.201Z,86.50
2023-11-15T16:21:24.494Z,86.42
2023-11-15T16:24:00.356Z,86.56
2023-11-15T16:26:32.480Z,86.42
2023-11-15T16:29:04.794Z,86.43
2023-11-15T16:31:36.926Z,86.31
2023-11-15T16:34:08.970Z,85.88
2023-11-15T16:36:41.821Z,84.18
2023-11-15T16:39:14.530Z,83.98
2023-11-15T16:41:51.706Z,83.45
2023-11-15T16:44:24.700Z,82.40
2023-11-15T16:46:56.862Z,82.25
2023-11-15T16:49:29.119Z,81.89
2023-11-15T16:52:02.449Z,81.44
2023-11-15T16:54:36.329Z,81.36
2023-11-15T16:57:08.697Z,81.53
2023-11-15T16:59:40.862Z,81.50
2023-11-15T17:02:13.331Z,81.26
2023-11-15T17:04:45.461Z,81.10
2023-11-15T17:07:17.731Z,80.98
2023-11-15T17:09:52.444Z,81.24
2023-11-15T17:12:26.257Z,81.32
2023-11-15T17:15:00.022Z,81.47
2023-11-15T17:17:32.340Z,81.70
2023-11-15T17:20:06.346Z,81.81
2023-11-15T17:22:38.676Z,81.91
2023-11-15T17:25:19.548Z,81.81
2023-11-15T17:27:53.310Z,81.81
2023-11-15T17:30:26.118Z,81.45
2023-11-15T17:33:00.973Z,81.82
2023-11-15T17:35:33.067Z,82.26
2023-11-15T17:38:05.212Z,82.21
2023-11-15T17:40:37.254Z,82.37
2023-11-15T17:43:09.308Z,82.02
2023-11-15T17:45:41.433Z,81.11
2023-11-15T17:48:13.629Z,80.72
2023-11-15T17:50:46.500Z,80.07
2023-11-15T17:53:19.730Z,79.88
2023-11-15T17:55:51.807Z,80.02
2023-11-15T17:58:23.873Z,79.85
2023-11-15T18:00:56.192Z,79.41
2023-11-15T18:03:28.647Z,79.21
2023-11-15T18:06:01.037Z,79.15
2023-11-15T18:08:33.735Z,79.24
2023-11-15T18:11:06.362Z,79.49
2023-11-15T18:13:38.407Z,79.50
2023-11-15T18:16:12.157Z,79.71
2023-11-15T18:18:44.398Z,80.25
2023-11-15T18:21:16.620Z,79.58
2023-11-15T18:23:50.599Z,79.27
2023-11-15T18:26:26.566Z,79.08
2023-11-15T18:28:58.688Z,78.73
2023-11-15T18:31:31.249Z,78.59
2023-11-15T18:34:03.497Z,78.95
2023-11-15T18:36:36.332Z,79.20
2023-11-15T18:39:13.003Z,79.23
2023-11-15T18:41:45.839Z,78.98
2023-11-15T18:44:18.916Z,78.65
2023-11-15T18:46:55.020Z,78.55
2023-11-15T18:49:28.097Z,78.46
2023-11-15T18:52:00.370Z,78.20
2023-11-15T18:54:32.703Z,78.21
2023-11-15T18:57:05.894Z,78.25
2023-11-15T18:59:38.108Z,78.23
2023-11-15T19:02:10.220Z,77.90
2023-11-15T19:04:42.879Z,77.53
2023-11-15T19:07:15.934Z,77.45
2023-11-15T19:09:48.114Z,77.18
2023-11-15T19:12:20.179Z,76.68
2023-11-15T19:14:52.448Z,76.71
2023-11-15T19:17:24.788Z,76.48
2023-11-15T19:19:59.400Z,76.20
2023-11-15T19:22:31.488Z,76.14
2023-11-15T19:25:03.826Z,76.06
2023-11-15T19:27:38.409Z,76.01
2023-11-15T19:30:13.495Z,75.91
2023-11-15T19:32:45.849Z,75.77
2023-11-15T19:35:20.713Z,75.56
2023-11-15T19:37:53.315Z,75.57
2023-11-15T19:40:25.617Z,75.54
2023-11-15T19:42:57.689Z,75.11
2023-11-15T19:45:29.971Z,75.20
2023-11-15T19:48:02.989Z,74.86
2023-11-15T19:50:36.855Z,74.63
2023-11-15T19:53:09.063Z,74.61
2023-11-15T19:55:41.434Z,74.45
2023-11-15T19:58:13.752Z,74.41
2023-11-15T20:00:46.082Z,74.43
2023-11-15T20:03:18.911Z,74.96
2023-11-15T20:05:52.630Z,75.28
2023-11-15T20:08:24.836Z,75.59
2023-11-15T20:10:56.917Z,75.71
2023-11-15T20:13:30.622Z,75.50
2023-11-15T20:16:02.736Z,75.35
2023-11-15T20:18:34.920Z,74.61
2023-11-15T20:21:09.021Z,73.64
2023-11-15T20:23:41.911Z,73.64
2023-11-15T20:26:14.029Z,74.17
2023-11-15T20:28:46.064Z,74.42
2023-11-15T20:31:19.252Z,75.24
2023-11-15T20:33:51.959Z,75.77
2023-11-15T20:36:24.080Z,75.49
2023-11-15T20:38:56.219Z,75.52
2023-11-15T20:41:30.686Z,75.69
2023-11-15T20:44:02.791Z,75.92
2023-11-15T20:46:35.187Z,76.17
2023-11-15T20:49:08.573Z,76.32
2023-11-15T20:51:45.858Z,76.31
2023-11-15T20:54:19.169Z,75.77
2023-11-15T20:56:51.395Z,75.73
2023-11-15T20:59:23.482Z,75.20
2023-11-15T21:01:55.489Z,74.60
2023-11-15T21:04:27.705Z,74.45
2023-11-15T21:07:01.056Z,73.85
2023-11-15T21:09:33.672Z,73.55
2023-11-15T21:12:06.527Z,73.22
2023-11-15T21:14:40.182Z,73.06
2023-11-15T21:17:12.270Z,72.83
2023-11-15T21:19:46.242Z,72.28
2023-11-15T21:22:18.770Z,72.22
2023-11-15T21:24:50.942Z,71.93
2023-11-15T21:27:23.644Z,71.72
2023-11-15T21:29:55.772Z,71.40
2023-11-15T21:32:29.502Z,71.28
2023-11-15T21:35:01.658Z,71.21
2023-11-15T21:37:33.720Z,71.12
2023-11-15T21:40:07.271Z,70.73
2023-11-15T21:42:40.002Z,70.78
2023-11-15T21:45:13.702Z,70.77
2023-11-15T21:47:46.980Z,71.03
2023-11-15T21:50:22.038Z,71.05
2023-11-15T21:52:57.944Z,71.43
2023-11-15T21:55:30.628Z,71.29
2023-11-15T21:58:08.030Z,71.32
2023-11-15T22:00:40.748Z,71.15
2023-11-15T22:03:12.935Z,71.10
2023-11-15T22:05:45.164Z,71.14
2023-11-15T22:08:17.267Z,71.00
2023-11-15T22:10:49.293Z,70.80
2023-11-15T22:13:43.512Z,70.39
2023-11-15T22:16:16.447Z,70.57
2023-11-15T22:18:49.599Z,70.53
2023-11-15T22:21:21.564Z,70.29
2023-11-15T22:23:53.699Z,70.43
2023-11-15T22:26:25.786Z,70.50
2023-11-15T22:28:57.955Z,70.41
2023-11-15T22:31:30.179Z,70.21
2023-11-15T22:34:02.320Z,70.28
2023-11-15T22:36:34.494Z,70.48
2023-11-15T22:39:06.875Z,70.80
2023-11-15T22:41:39.025Z,71.20
2023-11-15T22:44:11.307Z,71.28
2023-11-15T22:46:43.336Z,71.46
2023-11-15T22:49:15.403Z,71.34
2023-11-15T22:51:47.790Z,71.44
2023-11-15T22:54:20.096Z,71.32
2023-11-15T22:56:52.810Z,71.59
2023-11-15T22:59:24.887Z,71.58
2023-11-15T23:01:56.999Z,71.51
2023-11-15T23:04:29.247Z,71.30
2023-11-15T23:07:02.253Z,71.29
2023-11-15T23:09:34.712Z,71.11
2023-11-15T23:12:07.904Z,70.86
2023-11-15T23:14:40.044Z,71.02
2023-11-15T23:17:12.847Z,71.58
2023-11-15T23:19:46.175Z,71.92
2023-11-15T23:22:18.348Z,71.58
2023-11-15T23:24:50.468Z,71.57
2023-11-15T23:27:22.811Z,71.62
2023-11-15T23:29:55.175Z,71.83
2023-11-15T23:32:29.299Z,71.75
2023-11-15T23:35:03.745Z,71.75
2023-11-15T23:37:36.157Z,72.54
2023-11-15T23:40:13.245Z,72.71
2023-11-15T23:42:46.744Z,73.17
2023-11-15T23:45:18.783Z,73.25
2023-11-15T23:47:51.371Z,73.19
2023-11-15T23:50:24.299Z,72.92
2023-11-15T23:52:56.733Z,72.73
2023-11-15T23:55:30.201Z,72.71
2023-11-15T23:58:04.754Z,73.15
